Blairstown, Iowa
Current Conditions -  °F | °C
As of 7:52 PM on Sunday 25 Jan 2015 (Local Time) from KCID Reporting Station
Clear Clear  
Wind Chill: 13°   Ceiling: Unl
Heat Index: 22°   Visibility: 10mi
Dew Point: 17°   Wind: 8mph
Humidity: 82%   Direction: 40°NE
Pressure: 30.05"   Gusts: NA
Location:  41.91°N, 92.08°W
Report Text: KCID 260152Z 04007KT 10SM CLR M06/M08 A3005 RMK AO2 SLP187 T10561083
Loading
Personal Weather Stations






























Interactive Weather Map New forecast layout! Learn more

10-Day Weather Forecast

Advertisements
Track Severe Weather on mobile